Time;durP1;ratioP1;P1;durP2;ratioP2;P2;SDS_P1;SDS_P2;PMS_P1;PMS_P2;Temp;Humidity;BMP_temperature;BMP_pressure;BME280_temperature;BME280_humidity;BME280_pressure;Samples;Min_cycle;Max_cycle;Signal;HPM_P1;HPM_P2
2023/09/22 00:00:05;;;;;;;10.60;8.13;;;;;;;17.90;75.39;98056.88;4953293;29;20047;-80
2023/09/22 00:02:31;;;;;;;9.93;8.13;;;;;;;17.91;75.99;98047.88;4951950;29;20061;-81
2023/09/22 00:04:58;;;;;;;8.68;7.45;;;;;;;17.93;75.27;98053.88;4952652;29;20051;-79
2023/09/22 00:07:24;;;;;;;9.15;7.63;;;;;;;17.94;75.07;98044.88;4952960;29;20047;-79
2023/09/22 00:09:51;;;;;;;9.48;7.25;;;;;;;17.95;75.51;98045.72;4953553;29;20636;-79
2023/09/22 00:12:18;;;;;;;9.82;7.60;;;;;;;17.97;75.54;98043.69;4953025;29;20508;-81
2023/09/22 00:14:45;;;;;;;9.50;7.13;;;;;;;17.98;75.35;98056.81;4952691;29;20055;-80
2023/09/22 00:17:12;;;;;;;9.10;6.88;;;;;;;18.00;75.23;98059.31;4951623;29;20090;-80
2023/09/22 00:19:38;;;;;;;9.55;6.97;;;;;;;18.02;75.19;98064.47;4933868;29;20066;-80
2023/09/22 00:22:05;;;;;;;8.02;6.60;;;;;;;18.01;74.79;98060.16;4933508;29;20048;-80
2023/09/22 00:24:32;;;;;;;11.35;7.05;;;;;;;18.00;74.63;98061.97;4932548;29;20051;-80
2023/09/22 00:26:58;;;;;;;8.98;6.68;;;;;;;18.00;74.84;98074.44;4942413;29;20070;-81
2023/09/22 00:29:25;;;;;;;8.07;6.25;;;;;;;17.97;74.99;98065.81;4952864;29;20054;-80
2023/09/22 00:31:51;;;;;;;10.20;7.43;;;;;;;17.98;74.85;98071.97;4952696;29;20492;-80
2023/09/22 00:34:18;;;;;;;8.85;7.05;;;;;;;17.96;75.07;98081.97;4952466;29;20063;-81
2023/09/22 00:36:45;;;;;;;13.15;8.05;;;;;;;17.96;75.22;98085.47;4951156;29;20059;-80
2023/09/22 00:39:12;;;;;;;8.93;6.78;;;;;;;17.98;75.37;98086.09;4952942;28;20059;-81
2023/09/22 00:41:39;;;;;;;10.98;7.25;;;;;;;17.98;75.05;98085.28;4952724;29;20109;-81
2023/09/22 00:44:06;;;;;;;11.35;7.28;;;;;;;18.00;74.91;98087.75;4952469;29;20098;-80
2023/09/22 00:46:32;;;;;;;11.18;7.47;;;;;;;18.00;75.21;98093.09;4952479;29;20091;-80
2023/09/22 00:48:59;;;;;;;11.07;7.82;;;;;;;17.99;75.00;98089.63;4952469;29;20067;-81
2023/09/22 00:51:26;;;;;;;8.77;7.47;;;;;;;18.00;74.93;98091.25;4952472;29;20055;-80
2023/09/22 00:53:53;;;;;;;10.55;7.53;;;;;;;18.01;74.96;98092.91;4952678;29;20047;-80
2023/09/22 00:56:21;;;;;;;10.35;7.97;;;;;;;17.99;74.72;98084.28;4951512;29;20054;-79
2023/09/22 00:58:50;;;;;;;8.57;7.05;;;;;;;17.99;74.68;98086.94;4951896;29;20058;-79
2023/09/22 01:01:20;;;;;;;8.65;7.43;;;;;;;17.99;74.44;98092.28;4952231;29;20138;-79
2023/09/22 01:03:51;;;;;;;9.50;7.57;;;;;;;17.96;74.70;98087.28;4952183;29;20520;-80
2023/09/22 01:06:18;;;;;;;12.10;7.90;;;;;;;17.95;74.60;98085.66;4952800;28;20062;-80
2023/09/22 01:08:45;;;;;;;11.57;7.05;;;;;;;17.93;74.52;98079.66;4956394;29;20597;-81
2023/09/22 01:11:11;;;;;;;9.10;7.10;;;;;;;17.91;74.55;98073.69;4956007;28;20051;-80
2023/09/22 01:13:38;;;;;;;8.13;6.95;;;;;;;17.90;74.49;98078.19;4955846;29;20578;-80
2023/09/22 01:16:05;;;;;;;8.80;7.35;;;;;;;17.89;74.67;98083.66;4956114;29;20098;-79
2023/09/22 01:18:31;;;;;;;9.57;7.30;;;;;;;17.87;74.70;98085.69;4955802;29;20047;-80
2023/09/22 01:20:59;;;;;;;9.38;7.35;;;;;;;17.84;74.24;98085.03;4955970;29;20051;-80
2023/09/22 01:23:25;;;;;;;12.90;7.22;;;;;;;17.83;74.54;98093.22;4955840;29;20055;-82
2023/09/22 01:25:52;;;;;;;9.65;7.60;;;;;;;17.81;74.89;98101.38;4955507;29;20150;-79
2023/09/22 01:28:19;;;;;;;10.30;7.50;;;;;;;17.81;75.01;98101.38;4955975;28;20087;-79
2023/09/22 01:30:45;;;;;;;8.20;6.97;;;;;;;17.80;74.82;98102.34;4955982;29;20105;-80
2023/09/22 01:33:12;;;;;;;7.90;7.03;;;;;;;17.80;75.02;98105.00;4955425;29;20055;-81
2023/09/22 01:35:39;;;;;;;10.90;8.15;;;;;;;17.79;74.81;98114.00;4955255;29;20500;-81
2023/09/22 01:38:18;;;;;;;11.18;7.80;;;;;;;17.76;74.35;98097.56;4955853;29;20051;-79
2023/09/22 01:40:45;;;;;;;9.35;7.22;;;;;;;17.79;74.71;98100.69;4955593;29;20126;-80
2023/09/22 01:43:12;;;;;;;9.20;7.70;;;;;;;17.79;74.75;98094.56;4955400;29;20476;-82
2023/09/22 01:45:39;;;;;;;9.57;7.10;;;;;;;17.78;74.84;98101.72;4955288;29;20082;-80
2023/09/22 01:48:08;;;;;;;8.10;7.28;;;;;;;17.78;74.93;98112.34;4955466;29;20051;-79
2023/09/22 01:50:39;;;;;;;8.10;6.90;;;;;;;17.78;74.91;98107.03;4955548;29;20055;-80
2023/09/22 01:53:09;;;;;;;7.72;6.80;;;;;;;17.78;74.85;98106.19;4955281;29;20086;-80
2023/09/22 01:55:40;;;;;;;7.38;6.63;;;;;;;17.75;74.55;98106.56;4955348;29;20408;-80
2023/09/22 01:58:08;;;;;;;7.78;6.85;;;;;;;17.77;74.78;98117.84;4936182;29;20086;-80
2023/09/22 02:00:35;;;;;;;8.48;7.25;;;;;;;17.77;74.53;98116.03;4936338;29;20052;-79
2023/09/22 02:03:03;;;;;;;8.48;6.38;;;;;;;17.76;74.63;98121.53;4935892;29;20056;-79
2023/09/22 02:05:29;;;;;;;7.90;6.38;;;;;;;17.75;74.38;98123.34;4938835;29;20417;-80
2023/09/22 02:07:57;;;;;;;8.20;5.63;;;;;;;17.74;74.62;98113.72;4955198;29;20051;-79
2023/09/22 02:10:24;;;;;;;6.30;5.13;;;;;;;17.71;74.55;98114.88;4955059;29;20055;-81
2023/09/22 02:12:50;;;;;;;6.38;5.30;;;;;;;17.69;74.36;98113.41;4955380;29;20118;-80
2023/09/22 02:15:17;;;;;;;6.03;5.20;;;;;;;17.68;74.53;98111.75;4954821;29;20051;-80
2023/09/22 02:17:46;;;;;;;5.25;4.50;;;;;;;17.68;74.50;98122.41;4953230;28;20051;-81
2023/09/22 02:20:22;;;;;;;5.18;4.47;;;;;;;17.65;74.29;98126.22;4954895;29;20488;-80
2023/09/22 02:22:52;;;;;;;5.82;4.57;;;;;;;17.65;74.20;98146.69;4954612;29;20051;-82
2023/09/22 02:25:19;;;;;;;4.78;4.28;;;;;;;17.63;74.21;98146.00;4954793;29;20057;-80
2023/09/22 02:27:51;;;;;;;4.72;4.30;;;;;;;17.61;73.79;98154.19;4954410;28;20051;-80
2023/09/22 02:30:18;;;;;;;7.03;4.50;;;;;;;17.58;73.93;98150.03;4954905;29;20147;-79
2023/09/22 02:32:49;;;;;;;4.72;4.03;;;;;;;17.56;73.85;98153.84;4954624;29;20591;-81
2023/09/22 02:35:21;;;;;;;8.02;4.40;;;;;;;17.54;74.12;98151.38;4954409;29;20488;-80
2023/09/22 02:37:48;;;;;;;4.93;4.43;;;;;;;17.54;73.68;98153.22;4954442;29;20389;-79
2023/09/22 02:40:15;;;;;;;6.13;4.45;;;;;;;17.51;73.95;98151.75;4954862;29;20097;-82
2023/09/22 02:42:43;;;;;;;9.57;3.85;;;;;;;17.48;73.93;98149.41;4954468;29;20130;-80
2023/09/22 02:45:10;;;;;;;7.05;4.25;;;;;;;17.47;73.90;98147.75;4954229;29;20058;-80
2023/09/22 02:47:38;;;;;;;6.60;4.65;;;;;;;17.43;73.58;98159.75;4952782;29;20047;-81
2023/09/22 02:50:09;;;;;;;6.57;4.75;;;;;;;17.41;73.48;98161.72;4953104;29;20102;-82
2023/09/22 02:52:41;;;;;;;5.50;4.70;;;;;;;17.38;73.90;98162.09;4953325;29;20055;-80
2023/09/22 02:55:09;;;;;;;5.72;5.13;;;;;;;17.37;73.73;98160.41;4953003;29;20085;-81
2023/09/22 02:57:36;;;;;;;6.22;5.38;;;;;;;17.36;73.58;98156.09;4953995;28;20062;-80
2023/09/22 03:00:11;;;;;;;5.88;5.28;;;;;;;17.34;73.45;98158.94;4953809;29;20079;-80
2023/09/22 03:02:38;;;;;;;9.15;5.78;;;;;;;17.32;73.53;98150.31;4953768;28;20054;-80
2023/09/22 03:05:08;;;;;;;6.80;5.85;;;;;;;17.28;72.81;98147.16;4954125;29;20113;-79
2023/09/22 03:07:34;;;;;;;6.55;5.25;;;;;;;17.27;73.08;98155.31;4954153;29;20059;-81
2023/09/22 03:10:01;;;;;;;6.50;5.65;;;;;;;17.23;72.95;98152.13;4953810;29;20097;-80
2023/09/22 03:12:27;;;;;;;7.13;5.80;;;;;;;17.18;72.77;98150.00;4953859;29;20448;-81
2023/09/22 03:14:54;;;;;;;7.93;6.13;;;;;;;17.15;72.71;98146.84;4953553;29;20452;-79
2023/09/22 03:17:20;;;;;;;7.32;5.32;;;;;;;17.11;72.68;98140.19;4953804;29;20051;-80
2023/09/22 03:19:47;;;;;;;7.00;5.60;;;;;;;17.05;72.35;98139.88;4954030;29;20085;-79
2023/09/22 03:22:13;;;;;;;6.63;5.65;;;;;;;17.01;72.40;98140.38;4953964;29;20054;-81
2023/09/22 03:24:39;;;;;;;8.18;5.53;;;;;;;16.96;72.47;98130.25;4952863;29;20093;-80
2023/09/22 03:27:07;;;;;;;5.90;5.22;;;;;;;16.90;72.51;98129.09;4953003;29;20054;-80
2023/09/22 03:29:34;;;;;;;7.90;5.88;;;;;;;16.85;72.33;98127.97;4953490;28;20504;-81
2023/09/22 03:32:00;;;;;;;7.18;5.47;;;;;;;16.79;72.25;98126.78;4953594;29;20054;-84
2023/09/22 03:34:27;;;;;;;8.55;5.68;;;;;;;16.73;72.19;98112.34;4953928;29;20138;-81
2023/09/22 03:36:53;;;;;;;7.78;5.40;;;;;;;16.67;72.31;98118.31;4954202;29;20102;-80
2023/09/22 03:39:22;;;;;;;9.02;5.75;;;;;;;16.63;72.34;98114.38;4953787;29;20070;-82
2023/09/22 03:41:52;;;;;;;8.35;5.10;;;;;;;16.57;72.42;98120.34;4951974;29;20064;-82
2023/09/22 03:44:19;;;;;;;7.50;5.75;;;;;;;16.50;72.27;98118.34;4952951;29;20520;-82
2023/09/22 03:46:46;;;;;;;8.18;5.65;;;;;;;16.46;72.17;98127.66;4952045;29;20087;-81
2023/09/22 03:49:13;;;;;;;7.45;5.50;;;;;;;16.38;72.18;98128.44;4952129;29;20485;-82
2023/09/22 03:51:39;;;;;;;7.78;5.90;;;;;;;16.33;72.25;98127.31;4952893;29;20055;-80
2023/09/22 03:54:08;;;;;;;6.78;5.53;;;;;;;16.27;72.26;98134.91;4951724;29;20079;-80
2023/09/22 03:56:37;;;;;;;9.88;6.03;;;;;;;16.21;71.60;98143.56;4953097;29;20427;-82
2023/09/22 03:59:05;;;;;;;7.70;6.00;;;;;;;16.17;72.28;98152.00;4953329;29;20067;-80
2023/09/22 04:01:32;;;;;;;9.70;6.20;;;;;;;16.11;72.09;98145.53;4952909;28;20118;-79
2023/09/22 04:03:59;;;;;;;8.57;5.40;;;;;;;16.05;72.03;98138.22;4951658;29;20102;-80
2023/09/22 04:06:25;;;;;;;7.95;5.65;;;;;;;16.00;72.27;98150.16;4953108;29;20061;-80
2023/09/22 04:08:52;;;;;;;6.80;5.22;;;;;;;15.96;72.30;98163.91;4951812;29;20501;-81
2023/09/22 04:11:18;;;;;;;8.27;5.38;;;;;;;15.91;72.25;98153.75;4952615;29;20061;-80
2023/09/22 04:13:45;;;;;;;9.18;5.30;;;;;;;15.86;72.46;98164.84;4952649;29;20703;-81
2023/09/22 04:16:11;;;;;;;7.93;5.88;;;;;;;15.82;72.16;98158.22;4953179;29;20083;-80
2023/09/22 04:18:38;;;;;;;10.15;6.15;;;;;;;15.77;72.36;98166.63;4953279;29;20134;-80
2023/09/22 04:21:07;;;;;;;10.75;6.15;;;;;;;15.72;72.31;98176.91;4951941;29;20047;-80
2023/09/22 04:23:34;;;;;;;7.13;5.07;;;;;;;15.69;72.38;98182.53;4952195;29;20149;-80
2023/09/22 04:26:09;;;;;;;8.38;5.57;;;;;;;15.64;72.18;98187.47;4952851;29;20090;-82
2023/09/22 04:28:36;;;;;;;9.45;5.30;;;;;;;15.64;72.59;98198.91;4953115;29;20075;-81
2023/09/22 04:31:03;;;;;;;10.73;5.85;;;;;;;15.60;72.82;98202.91;4953059;29;20050;-80
2023/09/22 04:33:30;;;;;;;8.88;5.45;;;;;;;15.58;72.73;98202.19;4952154;29;20485;-81
2023/09/22 04:35:56;;;;;;;9.55;5.45;;;;;;;15.56;72.71;98208.66;4951737;29;20051;-80
2023/09/22 04:38:23;;;;;;;10.63;5.72;;;;;;;15.54;72.77;98208.81;4952793;29;20059;-79
2023/09/22 04:40:56;;;;;;;6.93;4.78;;;;;;;15.50;72.50;98215.41;4953883;28;20058;-80
2023/09/22 04:43:23;;;;;;;7.93;5.60;;;;;;;15.50;73.30;98210.97;4956199;29;20055;-80
2023/09/22 04:45:50;;;;;;;10.45;5.50;;;;;;;15.49;73.26;98233.16;4956785;29;20580;-79
2023/09/22 04:48:17;;;;;;;9.10;6.35;;;;;;;15.48;73.23;98234.13;4955663;29;20420;-81
2023/09/22 04:50:53;;;;;;;9.32;6.20;;;;;;;15.44;72.85;98235.44;4956598;29;20051;-80
2023/09/22 04:53:20;;;;;;;9.25;5.88;;;;;;;15.47;73.41;98228.97;4955184;29;20051;-80
2023/09/22 04:55:48;;;;;;;8.85;5.55;;;;;;;15.47;73.22;98234.28;4956608;29;20051;-80
2023/09/22 04:58:14;;;;;;;9.93;6.10;;;;;;;15.46;73.31;98228.16;4956629;29;20086;-81
2023/09/22 05:00:41;;;;;;;9.57;6.32;;;;;;;15.45;73.25;98231.81;4956595;29;20047;-80
2023/09/22 05:03:07;;;;;;;9.13;5.85;;;;;;;15.44;73.00;98216.88;4955855;29;20059;-81
2023/09/22 05:05:34;;;;;;;12.18;7.18;;;;;;;15.43;73.28;98209.91;4956043;29;20082;-81
2023/09/22 05:08:01;;;;;;;9.02;6.68;;;;;;;15.42;73.54;98229.47;4956476;29;20052;-81
2023/09/22 05:10:28;;;;;;;12.93;7.32;;;;;;;15.40;73.40;98228.78;4956217;29;20134;-80
2023/09/22 05:12:54;;;;;;;12.50;7.32;;;;;;;15.39;73.50;98236.91;4956175;29;20059;-81
2023/09/22 05:15:21;;;;;;;14.88;7.22;;;;;;;15.37;73.68;98239.72;4954599;29;20055;-81
2023/09/22 05:17:47;;;;;;;9.80;7.18;;;;;;;15.36;73.68;98249.47;4956107;29;20056;-80
2023/09/22 05:20:14;;;;;;;11.75;7.60;;;;;;;15.36;73.32;98260.09;4955931;29;20106;-81
2023/09/22 05:22:41;;;;;;;13.23;7.68;;;;;;;15.36;73.68;98265.38;4955867;29;20670;-80
2023/09/22 05:25:09;;;;;;;11.85;8.10;;;;;;;15.36;73.59;98259.25;4955557;29;20130;-79
2023/09/22 05:27:36;;;;;;;10.63;7.35;;;;;;;15.35;73.63;98250.47;4956023;29;20088;-80
2023/09/22 05:30:06;;;;;;;11.80;7.13;;;;;;;15.34;73.71;98240.03;4955869;29;20047;-80
2023/09/22 05:32:33;;;;;;;11.48;7.45;;;;;;;15.34;73.76;98247.97;4955415;29;20051;-81
2023/09/22 05:35:00;;;;;;;14.27;8.57;;;;;;;15.34;74.08;98245.31;4955573;29;20456;-82
2023/09/22 05:37:27;;;;;;;10.88;7.15;;;;;;;15.33;74.24;98236.53;4955370;29;20061;-79
2023/09/22 05:39:53;;;;;;;9.60;7.45;;;;;;;15.34;74.45;98234.72;4955227;29;20055;-79
2023/09/22 05:42:20;;;;;;;10.98;7.50;;;;;;;15.36;74.58;98236.22;4954997;29;20564;-81
2023/09/22 05:44:47;;;;;;;9.68;7.72;;;;;;;15.39;74.73;98242.22;4954522;29;20086;-79
2023/09/22 05:47:13;;;;;;;10.85;7.78;;;;;;;15.41;74.81;98243.72;4954670;29;20058;-79
2023/09/22 05:49:40;;;;;;;12.35;7.88;;;;;;;15.44;74.59;98261.13;4955086;29;20074;-81
2023/09/22 05:52:07;;;;;;;9.75;8.10;;;;;;;15.46;74.55;98252.03;4954432;28;20051;-81
2023/09/22 05:54:34;;;;;;;10.68;7.90;;;;;;;15.46;74.55;98249.38;4954715;29;20047;-79
2023/09/22 05:57:01;;;;;;;13.45;8.35;;;;;;;15.48;74.57;98255.34;4954752;29;20518;-78
2023/09/22 05:59:28;;;;;;;11.30;7.10;;;;;;;15.49;74.71;98254.38;4955457;29;20069;-81
2023/09/22 06:01:57;;;;;;;10.40;7.00;;;;;;;15.50;74.52;98271.94;4954808;29;20051;-79
2023/09/22 06:04:24;;;;;;;10.75;8.07;;;;;;;15.53;74.65;98280.56;4954925;29;20059;-80
2023/09/22 06:06:53;;;;;;;10.63;7.82;;;;;;;15.54;74.89;98274.25;4954479;29;20079;-81
2023/09/22 06:09:21;;;;;;;8.98;7.45;;;;;;;15.55;74.75;98266.16;4954953;28;20047;-81
2023/09/22 06:11:49;;;;;;;12.45;7.40;;;;;;;15.57;74.84;98260.69;4955034;29;20138;-81
2023/09/22 06:14:15;;;;;;;11.60;8.07;;;;;;;15.58;74.92;98265.00;4954532;29;20048;-80
2023/09/22 06:16:42;;;;;;;11.77;7.50;;;;;;;15.61;74.73;98270.84;4953227;29;20047;-82
2023/09/22 06:19:10;;;;;;;10.45;7.32;;;;;;;15.63;74.79;98273.34;4955158;28;20412;-80
2023/09/22 06:21:38;;;;;;;11.40;7.20;;;;;;;15.65;74.86;98281.97;4954551;29;20051;-81
2023/09/22 06:24:06;;;;;;;12.18;7.65;;;;;;;15.67;74.92;98292.44;4953478;29;20137;-82
2023/09/22 06:26:33;;;;;;;12.77;7.22;;;;;;;15.69;74.93;98295.75;4953501;29;20058;-82
2023/09/22 06:28:59;;;;;;;10.88;7.43;;;;;;;15.71;75.00;98294.63;4952957;29;20055;-81
2023/09/22 06:31:26;;;;;;;10.30;7.32;;;;;;;15.73;75.13;98303.25;4953498;29;20051;-82
2023/09/22 06:33:53;;;;;;;11.50;7.28;;;;;;;15.76;75.23;98305.59;4953305;29;20047;-80
2023/09/22 06:36:20;;;;;;;11.18;7.32;;;;;;;15.80;75.22;98318.53;4953535;29;20145;-81
2023/09/22 06:38:46;;;;;;;8.85;6.15;;;;;;;15.83;75.24;98307.59;4954128;29;20075;-80
2023/09/22 06:41:17;;;;;;;9.88;6.32;;;;;;;15.85;74.60;98316.25;4954453;29;20098;-80
2023/09/22 06:43:45;;;;;;;9.00;5.97;;;;;;;15.89;75.19;98310.47;4954462;28;20055;-80
2023/09/22 06:46:25;;;;;;;7.53;5.90;;;;;;;15.94;75.29;98310.03;4954658;29;20051;-80
2023/09/22 06:48:52;;;;;;;7.82;5.63;;;;;;;15.98;75.46;98295.44;4954158;29;20046;-80
2023/09/22 06:51:19;;;;;;;8.27;5.03;;;;;;;16.02;75.35;98290.66;4954455;29;20058;-78
2023/09/22 06:53:47;;;;;;;7.45;4.97;;;;;;;16.08;75.44;98286.53;4954064;29;20051;-80
2023/09/22 06:56:17;;;;;;;12.25;4.97;;;;;;;16.12;75.30;98291.34;4953283;29;20615;-83
2023/09/22 06:58:47;;;;;;;8.85;4.85;;;;;;;16.18;75.25;98289.06;4953545;29;20641;-80
2023/09/22 07:01:15;;;;;;;7.40;4.57;;;;;;;16.22;75.13;98285.91;4953624;28;20051;-79
2023/09/22 07:03:44;;;;;;;10.43;4.53;;;;;;;16.26;74.93;98299.72;4953441;28;20054;-79
2023/09/22 07:06:14;;;;;;;5.47;4.13;;;;;;;16.31;74.91;98296.56;4952185;29;20444;-82
2023/09/22 07:08:45;;;;;;;4.88;4.00;;;;;;;16.36;74.83;98304.88;4952863;29;20134;-80
2023/09/22 07:11:13;;;;;;;5.20;4.03;;;;;;;16.42;75.14;98320.19;4953648;29;20083;-80
2023/09/22 07:13:40;;;;;;;5.63;4.30;;;;;;;16.47;75.07;98328.50;4953723;29;20051;-79
2023/09/22 07:16:07;;;;;;;7.85;4.72;;;;;;;16.51;74.60;98327.19;4952744;29;20094;-81
2023/09/22 07:18:34;;;;;;;5.97;4.13;;;;;;;16.54;74.42;98310.94;4952681;29;20059;-80
2023/09/22 07:21:01;;;;;;;6.50;4.38;;;;;;;16.58;74.06;98303.44;4953293;29;20498;-81
2023/09/22 07:23:30;;;;;;;7.70;4.22;;;;;;;16.59;73.72;98307.75;4953229;29;20051;-79
2023/09/22 07:26:11;;;;;;;6.78;4.32;;;;;;;16.57;72.65;98319.53;4953488;28;20045;-80
2023/09/22 07:28:39;;;;;;;5.07;3.67;;;;;;;16.59;73.73;98313.06;4953958;29;20051;-80
2023/09/22 07:31:13;;;;;;;5.20;3.80;;;;;;;16.59;73.12;98322.88;4953526;28;20127;-79
2023/09/22 07:33:41;;;;;;;6.97;3.80;;;;;;;16.62;74.11;98322.53;4953602;29;20062;-79
2023/09/22 07:36:08;;;;;;;6.38;3.67;;;;;;;16.66;74.03;98322.06;4953522;28;20215;-81
2023/09/22 07:38:36;;;;;;;8.82;3.58;;;;;;;16.70;74.40;98319.09;4952891;29;20043;-79
2023/09/22 07:41:02;;;;;;;7.32;3.42;;;;;;;16.73;74.30;98327.56;4952198;29;20142;-82
2023/09/22 07:43:29;;;;;;;6.90;3.60;;;;;;;16.78;74.34;98333.22;4953185;29;20063;-79
2023/09/22 07:45:57;;;;;;;9.07;3.05;;;;;;;16.82;74.01;98340.88;4953465;29;20074;-79
2023/09/22 07:48:25;;;;;;;5.18;3.25;;;;;;;16.87;73.99;98346.53;4953171;29;20055;-80
2023/09/22 07:50:52;;;;;;;4.95;3.00;;;;;;;16.90;73.99;98354.19;4953340;29;20419;-79
2023/09/22 07:53:20;;;;;;;5.63;3.58;;;;;;;16.93;73.84;98349.34;4952936;29;20055;-79
2023/09/22 07:55:47;;;;;;;5.13;2.78;;;;;;;16.96;73.47;98353.50;4953335;28;20048;-79
2023/09/22 07:58:14;;;;;;;6.68;2.88;;;;;;;16.99;73.70;98358.50;4952906;28;20043;-78
2023/09/22 08:00:46;;;;;;;4.97;2.70;;;;;;;17.02;73.65;98358.19;4953078;29;20150;-79
2023/09/22 08:03:13;;;;;;;4.87;2.47;;;;;;;17.05;73.70;98357.06;4952229;28;20505;-79
2023/09/22 08:05:40;;;;;;;5.55;2.63;;;;;;;17.10;73.66;98362.72;4953098;28;20291;-79
2023/09/22 08:08:07;;;;;;;6.22;2.33;;;;;;;17.15;73.78;98360.38;4953089;28;20043;-79
2023/09/22 08:10:34;;;;;;;4.30;2.35;;;;;;;17.20;73.78;98367.88;4952995;28;20047;-82
2023/09/22 08:13:00;;;;;;;4.35;2.28;;;;;;;17.26;73.78;98371.69;4951850;28;20086;-81
2023/09/22 08:15:27;;;;;;;4.00;1.90;;;;;;;17.31;73.60;98372.03;4951985;28;20106;-79
2023/09/22 08:17:56;;;;;;;2.75;1.90;;;;;;;17.37;73.62;98374.03;4952406;29;20047;-80
2023/09/22 08:20:23;;;;;;;6.53;1.85;;;;;;;17.44;73.56;98376.84;4951110;29;20058;-78
2023/09/22 08:22:49;;;;;;;5.18;2.05;;;;;;;17.49;73.14;98374.50;4952251;29;20146;-79
2023/09/22 08:25:16;;;;;;;4.20;1.80;;;;;;;17.55;72.97;98378.34;4951526;29;20055;-80
2023/09/22 08:27:44;;;;;;;4.25;1.60;;;;;;;17.60;72.90;98383.19;4953202;29;20051;-79
2023/09/22 08:30:11;;;;;;;2.95;1.73;;;;;;;17.66;72.93;98379.84;4951987;29;20059;-80
2023/09/22 08:32:39;;;;;;;3.55;1.70;;;;;;;17.70;72.21;98386.47;4952912;29;20082;-78
2023/09/22 08:35:11;;;;;;;3.38;1.80;;;;;;;17.75;71.34;98392.13;4952457;29;20058;-80
2023/09/22 08:37:41;;;;;;;6.30;1.65;;;;;;;17.81;72.42;98402.13;4953084;29;20057;-78
2023/09/22 08:40:11;;;;;;;2.65;1.40;;;;;;;17.87;72.31;98397.13;4952854;29;20500;-78
2023/09/22 08:42:38;;;;;;;3.15;1.83;;;;;;;17.92;72.00;98403.59;4952924;28;20062;-78
2023/09/22 08:45:08;;;;;;;4.65;1.75;;;;;;;17.96;71.56;98404.94;4952393;29;20428;-78
2023/09/22 08:47:39;;;;;;;5.95;1.80;;;;;;;17.99;71.51;98395.78;4934008;29;20044;-78
2023/09/22 08:50:07;;;;;;;3.00;1.70;;;;;;;18.03;71.52;98396.25;4934060;29;20060;-78
2023/09/22 08:52:33;;;;;;;3.60;1.70;;;;;;;18.06;71.10;98406.56;4933519;29;20055;-79
2023/09/22 08:55:03;;;;;;;5.88;1.65;;;;;;;18.07;70.97;98398.41;4940375;29;20130;-79
2023/09/22 08:57:30;;;;;;;3.47;1.85;;;;;;;18.09;71.27;98393.78;4953185;29;20048;-80
2023/09/22 08:59:57;;;;;;;3.72;1.75;;;;;;;18.14;71.22;98408.41;4952596;29;20051;-80
2023/09/22 09:02:25;;;;;;;4.28;1.90;;;;;;;18.18;71.39;98407.06;4951700;29;20389;-79
2023/09/22 09:04:53;;;;;;;5.00;2.03;;;;;;;18.23;71.40;98399.41;4952284;29;20476;-80
2023/09/22 09:07:22;;;;;;;4.57;1.83;;;;;;;18.27;70.65;98406.03;4952566;29;20047;-79
2023/09/22 09:09:49;;;;;;;4.88;1.65;;;;;;;18.35;71.52;98400.69;4951272;29;20139;-79
2023/09/22 09:12:16;;;;;;;5.68;1.80;;;;;;;18.44;71.42;98401.50;4952133;29;20082;-77
2023/09/22 09:14:47;;;;;;;4.15;1.77;;;;;;;18.52;70.86;98403.31;4952474;29;20077;-80
2023/09/22 09:17:21;;;;;;;8.88;1.60;;;;;;;18.56;67.88;98401.13;4952625;29;20051;-80
2023/09/22 09:19:55;;;;;;;3.85;2.00;;;;;;;18.61;68.63;98401.41;4952311;29;20535;-81
2023/09/22 09:22:31;;;;;;;3.60;1.92;;;;;;;18.62;67.53;98384.44;4952544;29;20437;-79
2023/09/22 09:25:10;;;;;;;2.47;1.95;;;;;;;18.66;68.05;98388.44;4952366;29;20079;-82
2023/09/22 09:27:39;;;;;;;3.05;1.80;;;;;;;18.72;69.92;98386.88;4952164;28;20047;-78
2023/09/22 09:30:08;;;;;;;2.15;1.92;;;;;;;18.78;70.07;98391.53;4940576;28;20054;-78
2023/09/22 09:32:36;;;;;;;2.60;2.00;;;;;;;18.83;68.83;98378.50;4939717;29;20106;-79
2023/09/22 09:35:04;;;;;;;3.47;2.10;;;;;;;18.87;68.47;98385.13;4955844;29;20122;-78
2023/09/22 09:37:30;;;;;;;3.90;2.20;;;;;;;18.89;68.79;98379.63;4954727;29;20782;-79
2023/09/22 09:39:58;;;;;;;4.88;1.98;;;;;;;18.93;68.46;98372.09;4955723;28;20051;-78
2023/09/22 09:42:26;;;;;;;4.40;2.15;;;;;;;18.94;68.33;98379.09;4955566;29;20567;-79
2023/09/22 09:44:57;;;;;;;3.85;2.15;;;;;;;18.96;67.96;98379.75;4951704;29;20043;-78
2023/09/22 09:47:25;;;;;;;4.97;2.00;;;;;;;18.98;67.87;98381.25;4936717;29;20043;-78
2023/09/22 09:50:20;;;;;;;3.35;2.20;;;;;;;18.98;66.43;98388.41;4936526;29;20167;-80
2023/09/22 09:52:55;;;;;;;2.58;2.17;;;;;;;19.02;66.35;98382.56;4935082;29;20048;-78
2023/09/22 09:55:24;;;;;;;6.97;2.70;;;;;;;19.11;68.69;98386.00;4935805;29;20413;-79
2023/09/22 09:57:53;;;;;;;4.88;1.90;;;;;;;19.15;66.44;98381.19;4935020;29;20059;-77
2023/09/22 10:00:20;;;;;;;4.30;1.90;;;;;;;19.19;66.95;98378.97;4935778;29;20120;-81
2023/09/22 10:02:49;;;;;;;3.13;1.70;;;;;;;19.23;66.96;98390.94;4936003;29;20091;-78
2023/09/22 10:05:21;;;;;;;4.07;2.00;;;;;;;19.28;66.41;98383.22;4936206;29;20265;-83
2023/09/22 10:07:50;;;;;;;3.07;2.30;;;;;;;19.39;68.14;98393.50;4936183;29;20048;-78
2023/09/22 10:10:20;;;;;;;2.97;1.77;;;;;;;19.50;66.56;98399.41;4934955;29;20386;-77
2023/09/22 10:12:47;;;;;;;2.10;1.77;;;;;;;19.59;66.82;98395.66;4935907;29;20130;-81
2023/09/22 10:15:14;;;;;;;4.68;1.65;;;;;;;19.67;66.91;98406.28;4935606;29;20083;-77
2023/09/22 10:17:41;;;;;;;4.25;1.70;;;;;;;19.72;66.61;98391.56;4934550;29;20114;-81
2023/09/22 10:20:13;;;;;;;4.65;1.65;;;;;;;19.75;66.16;98383.19;4935705;29;20091;-77
2023/09/22 10:22:40;;;;;;;4.40;1.70;;;;;;;19.79;65.00;98392.50;4949508;29;20051;-77
2023/09/22 10:25:13;;;;;;;3.25;1.30;;;;;;;19.78;62.62;98405.00;4954460;29;20047;-78
2023/09/22 10:27:57;;;;;;;1.50;1.40;;;;;;;19.75;62.08;98396.53;4953516;29;20061;-79
2023/09/22 10:30:45;;;;;;;1.92;1.33;;;;;;;19.73;61.87;98396.72;4954577;29;20087;-79
2023/09/22 10:33:21;;;;;;;1.48;1.30;;;;;;;19.73;62.70;98391.38;4954366;29;20058;-82
2023/09/22 10:35:49;;;;;;;6.50;1.77;;;;;;;19.73;63.92;98399.38;4954749;29;20051;-78
2023/09/22 10:38:15;;;;;;;1.75;1.63;;;;;;;19.70;63.44;98405.09;4954335;28;20067;-77
2023/09/22 10:41:01;;;;;;;2.55;1.80;;;;;;;19.60;61.84;98404.50;4954610;29;20046;-77
2023/09/22 10:43:29;;;;;;;2.65;1.58;;;;;;;19.62;62.90;98407.84;4954472;29;20456;-79
2023/09/22 10:45:56;;;;;;;4.53;1.95;;;;;;;19.62;64.04;98414.00;4954323;29;20106;-77
2023/09/22 10:48:23;;;;;;;2.22;1.55;;;;;;;19.58;64.09;98409.22;4954332;29;20055;-80
2023/09/22 10:50:51;;;;;;;2.13;1.48;;;;;;;19.55;63.54;98413.03;4954108;29;20138;-77
2023/09/22 10:53:18;;;;;;;3.58;1.60;;;;;;;19.53;63.91;98420.41;4953806;29;20142;-78
2023/09/22 10:55:45;;;;;;;1.45;1.30;;;;;;;19.48;63.54;98412.94;4953938;28;20445;-77
2023/09/22 10:58:18;;;;;;;4.07;1.63;;;;;;;19.45;63.17;98417.81;4951576;29;20043;-78
2023/09/22 11:01:08;;;;;;;3.60;1.45;;;;;;;19.34;62.54;98422.56;4953106;29;20110;-78
2023/09/22 11:03:35;;;;;;;4.05;1.45;;;;;;;19.36;63.86;98425.06;4953689;28;20047;-78
2023/09/22 11:06:06;;;;;;;3.13;1.48;;;;;;;19.29;62.74;98426.75;4954023;28;20142;-80
2023/09/22 11:08:46;;;;;;;4.03;1.50;;;;;;;19.26;64.43;98433.28;4953821;28;20047;-80
2023/09/22 11:11:15;;;;;;;3.83;1.77;;;;;;;19.21;64.05;98433.00;4954124;28;20055;-78
2023/09/22 11:13:50;;;;;;;2.30;1.70;;;;;;;19.16;63.56;98430.84;4953537;28;20130;-76
2023/09/22 11:16:18;;;;;;;3.47;1.73;;;;;;;19.21;65.15;98427.66;4953949;28;20055;-80
2023/09/22 11:18:45;;;;;;;3.00;1.60;;;;;;;19.25;65.95;98431.63;4952816;29;20051;-77
2023/09/22 11:21:13;;;;;;;1.88;1.20;;;;;;;19.31;65.80;98436.25;4953786;28;20063;-78
2023/09/22 11:23:40;;;;;;;3.15;1.50;;;;;;;19.35;65.54;98434.88;4953653;29;20085;-77
2023/09/22 11:26:09;;;;;;;3.65;1.73;;;;;;;19.36;64.83;98438.41;4953854;28;20081;-81
2023/09/22 11:28:41;;;;;;;2.85;1.45;;;;;;;19.35;63.51;98445.56;4952645;29;20051;-79
2023/09/22 11:31:20;;;;;;;2.60;1.58;;;;;;;19.32;62.72;98440.56;4953606;28;20496;-77
2023/09/22 11:34:04;;;;;;;2.63;1.63;;;;;;;19.30;62.30;98444.41;4953499;28;20102;-78
2023/09/22 11:36:54;;;;;;;2.72;1.50;;;;;;;19.27;61.77;98459.78;4953845;28;20055;-79